WetterOnline ( https://www.wetteronline.de )

Wetter aktuell Hohe Warte

Aktuelles Wetter: Wien / Hohe Warte (200m)

6-stündlich | Neueste Meldungen
Ortszeit Temperatur Wetter
Mo, 09.12. 13:00 3.3° C leichter Regen
Mo, 09.12. 7:00 1.7° C bedeckt
Mo, 09.12. 1:00 1.1° C Nebel (abnehmend)
So, 08.12. 19:00 2.3° C leicht bewölkt
So, 08.12. 13:00 10.4° C leicht bewölkt
So, 08.12. 7:00 3.9° C bewölkt
So, 08.12. 1:00 6.4° C wolkig
Sa, 07.12. 19:00 5.8° C leicht bewölkt
Ortszeit Temperatur Wetter
Mo, 09.12. 18:00 5.1° C bedeckt
Mo, 09.12. 17:00 4.6° C bedeckt
Mo, 09.12. 16:00 3.9° C bedeckt
Mo, 09.12. 15:00 3.6° C bedeckt, nach Regen
Mo, 09.12. 14:00 3.4° C leichter Regen
Mo, 09.12. 13:00 3.3° C leichter Regen
Ortszeit Relative Feuchte Sichtweite
Mo, 09.12. 13:00 86% 12 km
Mo, 09.12. 7:00 99% 1.7 km
Mo, 09.12. 1:00 98% 0.8 km
So, 08.12. 19:00 88% 12 km
So, 08.12. 13:00 50% 40 km
So, 08.12. 7:00 89% 30 km
So, 08.12. 1:00 83% 35 km
Sa, 07.12. 19:00 82% 45 km
Ortszeit Relative Feuchte Sichtweite
Mo, 09.12. 18:00 86% 13 km
Mo, 09.12. 17:00 85% 10 km
Mo, 09.12. 16:00 86% 10 km
Mo, 09.12. 15:00 86% 12 km
Mo, 09.12. 14:00 85% 12 km
Mo, 09.12. 13:00 86% 12 km
Ortszeit Niederschlagsmenge Niederschlagsart
Mo, 09.12. 13:00 0.1 l/m2 in 6 Std. Regen
Mo, 09.12. 7:00 0.0 l/m2 in 12 Std. Nebel
Mo, 09.12. 1:00 0.0 l/m2 in 24 Std. Nebel
So, 08.12. 19:00 0.0 l/m2 in 24 Std. -
So, 08.12. 13:00 0.0 l/m2 in 24 Std. -
So, 08.12. 7:00 0.0 l/m2 in 24 Std. -
So, 08.12. 1:00 0.0 l/m2 in 6 Std. -
Sa, 07.12. 19:00 0.8 l/m2 in 12 Std. -
Ortszeit Niederschlagsmenge Niederschlagsart
Mo, 09.12. 18:00 keine Meldung -
Mo, 09.12. 17:00 keine Meldung -
Mo, 09.12. 16:00 keine Meldung -
Mo, 09.12. 15:00 0.1 l/m2 in 1 Std. Regen
Mo, 09.12. 14:00 0.1 l/m2 in 1 Std. Regen
Mo, 09.12. 13:00 keine Meldung -
Ortszeit Stärke Spitze Richtung
km/h Bft. km/h Grad Sektor
Mo, 09.12. 13:00 11 2 - 210° SW
Mo, 09.12. 7:00 11 2 - 220° SW
Mo, 09.12. 1:00 7 2 - 190° S
So, 08.12. 19:00 7 2 - 210° SW
So, 08.12. 13:00 4 1 - 120° SO
So, 08.12. 7:00 4 1 - 280° W
So, 08.12. 1:00 14 3 - 280° W
Sa, 07.12. 19:00 11 2 - 230° SW
Ortszeit Stärke Spitze Richtung
km/h Bft. km/h Grad Sektor
Mo, 09.12. 18:00 7 2 - 240° SW
Mo, 09.12. 17:00 11 2 - 250° W
Mo, 09.12. 16:00 11 2 - 260° W
Mo, 09.12. 15:00 7 2 - 250° W
Mo, 09.12. 14:00 11 2 - 230° SW
Mo, 09.12. 13:00 11 2 - 210° SW
Ortszeit Untergrenze Bedeckung Gattung
total tief tief mittel hoch
Mo, 09.12. 13:00 120 m 8/8 8/8 St - -
Mo, 09.12. 7:00 60 m 8/8 8/8 St - -
Mo, 09.12. 1:00 - 8/8 - - - -
So, 08.12. 19:00 9000 m 7/8 0/8 - - Ci
So, 08.12. 13:00 8100 m 6/8 0/8 - - Ci
So, 08.12. 7:00 1500 m 7/8 7/8 Sc - -
So, 08.12. 1:00 1500 m 5/8 5/8 Sc - -
Sa, 07.12. 19:00 1800 m 4/8 1/8 Sc Ac -
Ortszeit Bedeckungsgrad in Achtel und Wolkenuntergrenze
Mo, 09.12. 18:00 8(2100m)
Mo, 09.12. 17:00 8(1800m)
Mo, 09.12. 16:00 8(1800m)
Mo, 09.12. 15:00 8(1500m)
Mo, 09.12. 14:00 8(1500m)
Mo, 09.12. 13:00 1(120m) 8(2100m)
Ortszeit Luftdruck NN (hPa) Tendenz (hPa in 3 Std.)
Mo, 09.12. 13:00 1009 - 0,7
Mo, 09.12. 7:00 1009 + 0,4
Mo, 09.12. 1:00 1010 - 1,3
So, 08.12. 19:00 1011 - 0,7
So, 08.12. 13:00 1014 - 3,0
So, 08.12. 7:00 1018 - 0,3
So, 08.12. 1:00 1019 0,0
Sa, 07.12. 19:00 1018 + 1,3
Ortszeit Luftdruck NN (hPa) Tendenz (hPa in 3 Std.)
Mo, 09.12. 18:00 1008 - 0,5
Mo, 09.12. 17:00 1008 - 0,4
Mo, 09.12. 16:00 1008 - 0,7
Mo, 09.12. 15:00 1009 - 0,6
Mo, 09.12. 14:00 1009 - 0,7
Mo, 09.12. 13:00 1009 - 0,7
Ortszeit Schneehöhe (cm)
Mo, 09.12. 13:00 -
Mo, 09.12. 7:00 -
Mo, 09.12. 1:00 -
So, 08.12. 19:00 -
So, 08.12. 13:00 -
So, 08.12. 7:00 -
So, 08.12. 1:00 -
Sa, 07.12. 19:00 -
Ortszeit Schneehöhe (cm)
Mo, 09.12. 18:00 -
Mo, 09.12. 17:00 -
Mo, 09.12. 16:00 -
Mo, 09.12. 15:00 -
Mo, 09.12. 14:00 -
Mo, 09.12. 13:00 -
Link zu dieser Seite / Seite empfehlen

Das Wetter in ...